Time;durP1;ratioP1;P1;durP2;ratioP2;P2;SDS_P1;SDS_P2;PMS_P1;PMS_P2;Temp;Humidity;BMP_temperature;BMP_pressure;BME280_temperature;BME280_humidity;BME280_pressure;Samples;Min_cycle;Max_cycle;Signal;HPM_P1;HPM_P2
2021/09/23 00:02:23;;;;;;;11.47;6.70;;;;;;;;;;6201764;22;20179;-91
2021/09/23 00:05:30;;;;;;;14.80;6.80;;;;;;;;;;6202601;23;20172;-91
2021/09/23 00:08:35;;;;;;;13.60;6.73;;;;;;;;;;6202625;23;20187;-91
2021/09/23 00:11:41;;;;;;;14.57;6.83;;;;;;;;;;6200650;23;20175;-92
2021/09/23 00:14:46;;;;;;;19.67;7.30;;;;;;;;;;6200738;23;20152;-91
2021/09/23 00:17:53;;;;;;;63.47;27.50;;;;;;;;;;6201644;23;20151;-90
2021/09/23 00:21:02;;;;;;;26.70;8.93;;;;;;;;;;6203327;22;20156;-91
2021/09/23 00:24:08;;;;;;;25.87;7.97;;;;;;;;;;6203472;23;20194;-90
2021/09/23 00:27:13;;;;;;;21.23;7.30;;;;;;;;;;6203260;23;20518;-90
2021/09/23 00:30:18;;;;;;;18.10;7.93;;;;;;;;;;6201746;22;20168;-89
2021/09/23 00:33:23;;;;;;;18.13;7.37;;;;;;;;;;6201385;23;20172;-91
2021/09/23 00:36:31;;;;;;;14.67;7.33;;;;;;;;;;6201611;22;20611;-91
2021/09/23 00:39:36;;;;;;;13.17;7.23;;;;;;;;;;6202274;23;20166;-92
2021/09/23 00:42:42;;;;;;;15.73;6.40;;;;;;;;;;6203540;23;20246;-91
2021/09/23 00:45:48;;;;;;;14.30;6.83;;;;;;;;;;6203236;23;20238;-91
2021/09/23 00:48:53;;;;;;;25.50;5.70;;;;;;;;;;6202948;23;20167;-90
2021/09/23 00:52:00;;;;;;;15.10;6.40;;;;;;;;;;6202944;23;20212;-90
2021/09/23 00:55:07;;;;;;;13.60;7.10;;;;;;;;;;6203565;23;20236;-91
2021/09/23 00:58:12;;;;;;;11.33;6.37;;;;;;;;;;6203905;23;20243;-89
2021/09/23 01:01:21;;;;;;;14.67;6.70;;;;;;;;;;6203191;23;20216;-91
2021/09/23 01:04:26;;;;;;;17.10;6.80;;;;;;;;;;6202122;23;20267;-92
2021/09/23 01:07:35;;;;;;;15.30;6.83;;;;;;;;;;6200577;23;20235;-90
2021/09/23 01:10:41;;;;;;;20.47;8.03;;;;;;;;;;6202847;23;20203;-92
2021/09/23 01:13:46;;;;;;;18.33;7.77;;;;;;;;;;6201889;23;20167;-91
2021/09/23 01:16:55;;;;;;;12.07;6.83;;;;;;;;;;6202558;22;20211;-91
2021/09/23 01:23:39;;;;;;;11.20;5.43;;;;;;;;;;6145409;23;20173;-91
2021/09/23 01:26:49;;;;;;;14.03;5.90;;;;;;;;;;6127487;23;20214;-92
2021/09/23 01:30:05;;;;;;;11.70;5.50;;;;;;;;;;6127118;23;20158;-93
2021/09/23 01:33:14;;;;;;;11.30;6.00;;;;;;;;;;6128186;23;20680;-92
2021/09/23 01:36:21;;;;;;;10.47;5.90;;;;;;;;;;6129254;23;20153;-89
2021/09/23 01:39:44;;;;;;;11.37;5.57;;;;;;;;;;6125940;23;20673;-91
2021/09/23 01:43:01;;;;;;;9.40;5.30;;;;;;;;;;6126838;23;20193;-91
2021/09/23 01:46:07;;;;;;;12.00;5.37;;;;;;;;;;6126488;23;20145;-89
2021/09/23 01:49:27;;;;;;;16.10;6.30;;;;;;;;;;6126768;23;20166;-91
2021/09/23 01:52:33;;;;;;;14.83;7.30;;;;;;;;;;6127153;23;20169;-92
2021/09/23 01:55:54;;;;;;;12.70;6.63;;;;;;;;;;6144269;23;20177;-90
2021/09/23 01:59:01;;;;;;;19.73;7.47;;;;;;;;;;6124760;23;20165;-91
2021/09/23 02:02:06;;;;;;;15.80;7.17;;;;;;;;;;6121468;23;20164;-90
2021/09/23 02:05:13;;;;;;;14.77;6.90;;;;;;;;;;6123959;23;20198;-91
2021/09/23 02:08:19;;;;;;;31.57;7.30;;;;;;;;;;6123139;23;20173;-90
2021/09/23 02:11:24;;;;;;;16.47;7.73;;;;;;;;;;6123900;23;20162;-90
2021/09/23 02:14:33;;;;;;;13.83;7.63;;;;;;;;;;6124338;23;20178;-92
2021/09/23 02:17:39;;;;;;;14.47;6.73;;;;;;;;;;6124018;23;20152;-90
2021/09/23 02:20:49;;;;;;;60.00;8.33;;;;;;;;;;6124871;23;20159;-92
2021/09/23 02:23:55;;;;;;;21.73;7.47;;;;;;;;;;6125871;23;20205;-92
2021/09/23 02:27:00;;;;;;;25.87;8.57;;;;;;;;;;6126565;23;20173;-91
2021/09/23 02:30:08;;;;;;;21.00;7.57;;;;;;;;;;6124921;23;20173;-90
2021/09/23 02:33:13;;;;;;;38.23;8.60;;;;;;;;;;6125465;23;20153;-91
2021/09/23 02:36:19;;;;;;;33.17;8.23;;;;;;;;;;6124641;23;20169;-91
2021/09/23 02:39:24;;;;;;;27.30;7.50;;;;;;;;;;6124113;23;20237;-89
2021/09/23 02:42:29;;;;;;;56.97;9.10;;;;;;;;;;6124483;23;20229;-90
2021/09/23 02:45:35;;;;;;;38.80;8.97;;;;;;;;;;6125242;23;20190;-92
2021/09/23 02:48:41;;;;;;;20.17;8.20;;;;;;;;;;6125115;23;20161;-92
2021/09/23 02:51:47;;;;;;;23.30;8.00;;;;;;;;;;6124779;23;20173;-92
2021/09/23 02:54:52;;;;;;;20.50;7.87;;;;;;;;;;6122519;23;20174;-89
2021/09/23 02:57:57;;;;;;;23.63;7.97;;;;;;;;;;6124852;23;20168;-90
2021/09/23 03:01:04;;;;;;;29.00;7.80;;;;;;;;;;6125435;23;20172;-91
2021/09/23 03:04:09;;;;;;;37.13;8.17;;;;;;;;;;6125947;23;20196;-91
2021/09/23 03:07:14;;;;;;;14.27;7.73;;;;;;;;;;6125424;23;20181;-91
2021/09/23 03:10:19;;;;;;;17.97;7.93;;;;;;;;;;6123753;23;20165;-90
2021/09/23 03:13:25;;;;;;;30.73;8.33;;;;;;;;;;6124161;23;20153;-92
2021/09/23 03:16:32;;;;;;;19.57;7.70;;;;;;;;;;6124782;23;20173;-91
2021/09/23 03:19:37;;;;;;;27.70;7.93;;;;;;;;;;6125263;23;20172;-92
2021/09/23 03:22:43;;;;;;;14.93;7.63;;;;;;;;;;6107377;23;20241;-90
2021/09/23 03:25:52;;;;;;;26.00;8.50;;;;;;;;;;6125719;23;20153;-91
2021/09/23 03:28:58;;;;;;;26.23;8.73;;;;;;;;;;6125454;23;20152;-89
2021/09/23 03:32:05;;;;;;;32.67;9.13;;;;;;;;;;6127159;23;20197;-90
2021/09/23 03:35:13;;;;;;;20.63;8.13;;;;;;;;;;6126003;23;20190;-91
2021/09/23 03:38:19;;;;;;;21.13;9.57;;;;;;;;;;6125891;23;20613;-90
2021/09/23 03:41:24;;;;;;;22.27;9.20;;;;;;;;;;6125391;23;20222;-90
2021/09/23 03:44:29;;;;;;;24.97;9.50;;;;;;;;;;6124347;23;20193;-92
2021/09/23 03:47:38;;;;;;;37.67;9.20;;;;;;;;;;6126162;23;20184;-91
2021/09/23 03:50:46;;;;;;;76.87;10.60;;;;;;;;;;6125511;23;20284;-91
2021/09/23 03:53:51;;;;;;;15.77;8.67;;;;;;;;;;6125299;23;20173;-91
2021/09/23 03:56:56;;;;;;;38.73;10.10;;;;;;;;;;6124808;23;20214;-89
2021/09/23 04:00:01;;;;;;;37.00;10.80;;;;;;;;;;6125220;23;20305;-92
2021/09/23 04:07:30;;;;;;;34.63;10.00;;;;;;;;;;6141915;23;20161;-91
2021/09/23 04:10:35;;;;;;;20.50;9.53;;;;;;;;;;6121427;23;20169;-90
2021/09/23 04:13:40;;;;;;;19.20;8.87;;;;;;;;;;6122103;23;20177;-93
2021/09/23 04:16:45;;;;;;;49.20;10.30;;;;;;;;;;6122992;23;20240;-91
2021/09/23 04:19:55;;;;;;;25.13;8.77;;;;;;;;;;6122532;23;20177;-92
2021/09/23 04:23:02;;;;;;;27.67;9.00;;;;;;;;;;6122681;23;20239;-90
2021/09/23 04:26:07;;;;;;;45.40;10.63;;;;;;;;;;6121486;23;20239;-91
2021/09/23 04:29:13;;;;;;;48.47;10.40;;;;;;;;;;6122628;23;20160;-92
2021/09/23 04:32:18;;;;;;;25.20;10.13;;;;;;;;;;6124213;23;20300;-92
2021/09/23 04:35:26;;;;;;;19.37;9.50;;;;;;;;;;6123681;23;20169;-92
2021/09/23 04:38:33;;;;;;;26.33;9.80;;;;;;;;;;6124085;23;20175;-91
2021/09/23 04:41:38;;;;;;;17.10;9.60;;;;;;;;;;6127168;23;20168;-91
2021/09/23 04:44:44;;;;;;;21.13;9.50;;;;;;;;;;6124950;23;20249;-90
2021/09/23 04:47:49;;;;;;;19.30;9.47;;;;;;;;;;6125261;23;20173;-90
2021/09/23 04:50:55;;;;;;;18.27;9.50;;;;;;;;;;6124619;23;20170;-90
2021/09/23 04:54:03;;;;;;;21.33;8.70;;;;;;;;;;6126758;23;20153;-92
2021/09/23 04:57:09;;;;;;;16.07;8.23;;;;;;;;;;6126024;23;20184;-91
2021/09/23 05:00:16;;;;;;;19.47;7.60;;;;;;;;;;6124614;23;20194;-90
2021/09/23 05:03:29;;;;;;;21.30;8.20;;;;;;;;;;6126749;23;20226;-91
2021/09/23 05:06:35;;;;;;;38.57;8.07;;;;;;;;;;6124779;23;20172;-91
2021/09/23 05:09:43;;;;;;;16.97;8.37;;;;;;;;;;6125183;23;20474;-91
2021/09/23 05:12:49;;;;;;;33.20;8.77;;;;;;;;;;6110501;23;20251;-91
2021/09/23 05:15:55;;;;;;;26.43;8.70;;;;;;;;;;6124746;23;20184;-91
2021/09/23 05:19:00;;;;;;;19.17;8.30;;;;;;;;;;6126240;23;20225;-91
2021/09/23 05:22:07;;;;;;;25.47;7.43;;;;;;;;;;6125756;23;20192;-90
2021/09/23 05:25:13;;;;;;;29.23;8.00;;;;;;;;;;6124633;23;20196;-89
2021/09/23 05:28:19;;;;;;;12.90;7.00;;;;;;;;;;6126164;23;20180;-92
2021/09/23 05:31:24;;;;;;;18.33;7.53;;;;;;;;;;6125734;23;20268;-90
2021/09/23 05:34:31;;;;;;;21.67;8.20;;;;;;;;;;6126261;23;20177;-90
2021/09/23 05:37:36;;;;;;;50.07;8.33;;;;;;;;;;6127764;23;20170;-91
2021/09/23 05:40:43;;;;;;;24.53;7.33;;;;;;;;;;6126500;23;20221;-90
2021/09/23 05:43:49;;;;;;;21.10;7.87;;;;;;;;;;6128351;23;20197;-90
2021/09/23 05:46:55;;;;;;;44.13;8.50;;;;;;;;;;6128813;23;20252;-90
2021/09/23 05:50:06;;;;;;;30.97;8.23;;;;;;;;;;6127455;23;20166;-91
2021/09/23 05:53:11;;;;;;;40.20;9.20;;;;;;;;;;6124450;23;20169;-90
2021/09/23 05:56:18;;;;;;;20.03;8.77;;;;;;;;;;6125887;23;20172;-90
2021/09/23 05:59:26;;;;;;;22.87;9.67;;;;;;;;;;6124885;23;20166;-90
2021/09/23 06:02:31;;;;;;;21.27;8.53;;;;;;;;;;6124389;23;20622;-90
2021/09/23 06:05:36;;;;;;;48.63;8.53;;;;;;;;;;6125938;23;20201;-91
2021/09/23 06:08:43;;;;;;;25.63;7.87;;;;;;;;;;6124507;23;20153;-89
2021/09/23 06:11:49;;;;;;;22.10;7.47;;;;;;;;;;6125403;23;20184;-91
2021/09/23 06:14:54;;;;;;;32.73;7.67;;;;;;;;;;6125721;23;20173;-91
2021/09/23 06:18:00;;;;;;;27.27;7.77;;;;;;;;;;6123628;23;20173;-90
2021/09/23 06:21:07;;;;;;;23.00;7.80;;;;;;;;;;6123154;23;20209;-91
2021/09/23 06:24:12;;;;;;;14.97;7.53;;;;;;;;;;6126894;23;20232;-91
2021/09/23 06:27:19;;;;;;;31.63;8.30;;;;;;;;;;6127080;23;20164;-91
2021/09/23 06:30:23;;;;;;;20.50;8.33;;;;;;;;;;6124442;23;20177;-89
2021/09/23 06:33:28;;;;;;;17.17;7.83;;;;;;;;;;6125386;23;20177;-91
2021/09/23 06:36:35;;;;;;;16.57;7.90;;;;;;;;;;6125565;23;20669;-92
2021/09/23 06:39:41;;;;;;;25.80;8.50;;;;;;;;;;6123662;23;20244;-89
2021/09/23 06:42:48;;;;;;;13.33;7.80;;;;;;;;;;6125014;23;20185;-90
2021/09/23 06:45:54;;;;;;;15.80;7.07;;;;;;;;;;6125780;23;20656;-91
2021/09/23 06:49:00;;;;;;;15.60;7.47;;;;;;;;;;6123752;23;20284;-90
2021/09/23 06:52:06;;;;;;;19.93;8.30;;;;;;;;;;6126324;23;20165;-92
2021/09/23 06:55:13;;;;;;;15.33;7.80;;;;;;;;;;6126428;23;20173;-91
2021/09/23 06:58:20;;;;;;;15.50;7.73;;;;;;;;;;6123875;23;20263;-91
2021/09/23 11:05:46;;;;;;;7.35;3.10;;;;;;;;;;6151444;22;20180;-91
2021/09/23 11:08:53;;;;;;;12.27;3.80;;;;;;;;;;6204510;22;20174;-91
2021/09/23 11:12:01;;;;;;;13.43;3.40;;;;;;;;;;6204145;23;20182;-92
2021/09/23 11:15:08;;;;;;;7.72;3.30;;;;;;;;;;6205790;23;20167;-92
2021/09/23 11:18:14;;;;;;;7.40;3.20;;;;;;;;;;6202342;22;20167;-92
2021/09/23 11:21:26;;;;;;;13.02;3.65;;;;;;;;;;6203492;23;20167;-91
2021/09/23 11:24:34;;;;;;;8.00;3.15;;;;;;;;;;6204926;23;20214;-90
2021/09/23 11:27:40;;;;;;;10.43;3.55;;;;;;;;;;6201539;22;20155;-93
2021/09/23 11:30:50;;;;;;;7.43;3.72;;;;;;;;;;6204181;23;20155;-91
2021/09/23 11:33:55;;;;;;;7.38;3.22;;;;;;;;;;6203777;23;20245;-90
2021/09/23 11:37:03;;;;;;;10.25;3.40;;;;;;;;;;6204024;23;20217;-91
2021/09/23 11:40:13;;;;;;;9.27;3.38;;;;;;;;;;6203624;23;20174;-93
2021/09/23 11:43:21;;;;;;;9.65;3.28;;;;;;;;;;6203313;23;20278;-91
2021/09/23 11:46:33;;;;;;;7.45;3.30;;;;;;;;;;6203052;23;20598;-90
2021/09/23 11:49:38;;;;;;;12.32;3.67;;;;;;;;;;6203746;23;20216;-92
2021/09/23 11:52:45;;;;;;;10.98;3.80;;;;;;;;;;6205320;22;20211;-94
2021/09/23 11:55:59;;;;;;;7.00;3.70;;;;;;;;;;6203690;22;20176;-91
2021/09/23 11:59:19;;;;;;;7.75;3.55;;;;;;;;;;6203038;23;20168;-90
2021/09/23 12:02:26;;;;;;;12.57;5.00;;;;;;;;;;6204960;22;20185;-91
2021/09/23 12:05:32;;;;;;;14.05;5.00;;;;;;;;;;6205713;22;20270;-91
2021/09/23 12:08:42;;;;;;;13.98;5.38;;;;;;;;;;6205203;23;20175;-92
2021/09/23 12:11:49;;;;;;;12.27;5.60;;;;;;;;;;6206796;22;20168;-91
2021/09/23 12:14:59;;;;;;;13.65;5.15;;;;;;;;;;6204967;23;20172;-91
2021/09/23 12:18:10;;;;;;;11.15;5.43;;;;;;;;;;6203480;23;20208;-91
2021/09/23 12:21:18;;;;;;;13.52;4.38;;;;;;;;;;6205320;23;20168;-92
2021/09/23 12:24:37;;;;;;;10.57;4.88;;;;;;;;;;6203768;22;20221;-91
2021/09/23 12:28:09;;;;;;;11.32;4.07;;;;;;;;;;6204843;23;20172;-91
2021/09/23 12:31:17;;;;;;;8.57;4.22;;;;;;;;;;6205295;23;20192;-92
2021/09/23 12:34:25;;;;;;;11.60;3.80;;;;;;;;;;6206352;23;20611;-94
2021/09/23 12:37:39;;;;;;;11.38;4.55;;;;;;;;;;6205206;22;20171;-92
2021/09/23 12:41:20;;;;;;;5.80;3.05;;;;;;;;;;6192692;23;20576;-91
2021/09/23 12:44:27;;;;;;;8.93;4.20;;;;;;;;;;6204894;22;20176;-92
2021/09/23 12:47:45;;;;;;;6.43;3.45;;;;;;;;;;6204237;23;20194;-91
2021/09/23 12:50:53;;;;;;;10.30;3.90;;;;;;;;;;6206710;22;20238;-93
2021/09/23 12:54:13;;;;;;;8.10;3.80;;;;;;;;;;6205440;22;20195;-91
2021/09/23 12:57:23;;;;;;;5.93;3.03;;;;;;;;;;6205067;22;20170;-93
2021/09/23 13:00:30;;;;;;;10.45;3.35;;;;;;;;;;6202471;22;20168;-91
2021/09/23 13:03:47;;;;;;;8.85;3.20;;;;;;;;;;6204900;23;20175;-92
2021/09/23 13:07:18;;;;;;;7.38;3.55;;;;;;;;;;6205346;22;20195;-92
2021/09/23 13:10:30;;;;;;;9.50;3.95;;;;;;;;;;6206374;22;20167;-93
2021/09/23 13:13:42;;;;;;;6.75;3.33;;;;;;;;;;6205729;23;20174;-93
2021/09/23 13:17:25;;;;;;;8.02;3.20;;;;;;;;;;6206233;23;20662;-92
2021/09/23 13:20:35;;;;;;;6.50;3.20;;;;;;;;;;6205514;23;20171;-95
2021/09/23 13:23:58;;;;;;;4.88;3.30;;;;;;;;;;6205942;23;20171;-91
2021/09/23 13:30:35;;;;;;;5.05;3.47;;;;;;;;;;6204727;23;20167;-92
2021/09/23 22:07:56;;;;;;;16.98;7.70;;;;;;;;;;6113338;23;20164;-90
2021/09/23 22:11:01;;;;;;;15.25;8.32;;;;;;;;;;6096440;23;20181;-90
2021/09/23 22:14:07;;;;;;;16.23;8.25;;;;;;;;;;6097793;23;20612;-91
2021/09/23 22:17:12;;;;;;;21.75;8.35;;;;;;;;;;6097453;23;20502;-89
2021/09/23 22:20:18;;;;;;;19.58;8.32;;;;;;;;;;6098067;23;20174;-91
2021/09/23 22:23:25;;;;;;;16.48;7.63;;;;;;;;;;6096163;23;20170;-92
2021/09/23 22:26:30;;;;;;;14.95;7.47;;;;;;;;;;6097383;23;20221;-90
2021/09/23 22:29:35;;;;;;;13.80;7.20;;;;;;;;;;6097104;23;20178;-90
2021/09/23 22:32:40;;;;;;;13.60;7.40;;;;;;;;;;6096021;23;20177;-91
2021/09/23 22:35:45;;;;;;;15.63;8.10;;;;;;;;;;6113197;23;20215;-90
2021/09/23 22:38:52;;;;;;;15.48;8.10;;;;;;;;;;6112998;23;20191;-91
2021/09/23 22:41:57;;;;;;;17.60;8.18;;;;;;;;;;6097949;23;20177;-89
2021/09/23 22:45:03;;;;;;;18.60;8.95;;;;;;;;;;6096602;23;20703;-90
2021/09/23 22:48:08;;;;;;;17.92;9.38;;;;;;;;;;6095748;23;20174;-89
2021/09/23 22:51:13;;;;;;;14.60;7.88;;;;;;;;;;6096103;23;20251;-90
2021/09/23 22:54:20;;;;;;;18.88;8.13;;;;;;;;;;6111852;23;20166;-91
2021/09/23 22:57:25;;;;;;;17.50;8.15;;;;;;;;;;6109830;23;20191;-90
2021/09/23 23:00:30;;;;;;;20.20;8.48;;;;;;;;;;6095270;23;20174;-90
2021/09/23 23:03:36;;;;;;;15.60;8.50;;;;;;;;;;6097330;23;20218;-89
2021/09/23 23:06:41;;;;;;;17.88;8.38;;;;;;;;;;6093399;23;20653;-91
2021/09/23 23:13:08;;;;;;;20.70;9.18;;;;;;;;;;6095728;23;20189;-90
2021/09/23 23:16:13;;;;;;;15.13;7.93;;;;;;;;;;6095857;23;20207;-90
2021/09/23 23:19:19;;;;;;;22.40;8.50;;;;;;;;;;6095729;23;20158;-90
2021/09/23 23:22:24;;;;;;;15.38;7.82;;;;;;;;;;6095637;23;20178;-91
2021/09/23 23:25:31;;;;;;;20.90;8.07;;;;;;;;;;6113883;23;20261;-89
2021/09/23 23:28:36;;;;;;;13.60;7.43;;;;;;;;;;6097236;23;20162;-92
2021/09/23 23:31:27;;;;;;;24.42;8.05;;;;;;;;;;6151747;23;20170;-90
2021/09/23 23:34:33;;;;;;;14.82;7.68;;;;;;;;;;6154701;23;20172;-89
2021/09/23 23:37:38;;;;;;;18.85;8.10;;;;;;;;;;6154087;23;20225;-92
2021/09/23 23:40:47;;;;;;;18.42;8.88;;;;;;;;;;6153638;23;20168;-91
2021/09/23 23:43:53;;;;;;;14.27;8.20;;;;;;;;;;6154643;23;20151;-91
2021/09/23 23:46:59;;;;;;;13.15;7.68;;;;;;;;;;6155551;23;20196;-91
2021/09/23 23:50:04;;;;;;;19.02;8.10;;;;;;;;;;6156525;23;20187;-89
2021/09/23 23:53:10;;;;;;;12.68;7.45;;;;;;;;;;6156863;23;20622;-87
2021/09/23 23:56:16;;;;;;;20.33;7.72;;;;;;;;;;6158129;23;20195;-88
2021/09/23 23:59:21;;;;;;;15.20;7.63;;;;;;;;;;6156586;23;20169;-90
